createdAt,value
2022-12-09T00:00:03.161Z,-2.4
2022-12-09T00:20:03.018Z,-2.5
2022-12-09T00:40:02.496Z,-2.7
2022-12-09T01:00:02.158Z,-2.7
2022-12-09T01:20:02.801Z,-2.8
2022-12-09T01:40:02.635Z,-3.1
2022-12-09T02:00:02.205Z,-3.2
2022-12-09T02:40:03.008Z,-3.3
2022-12-09T03:00:02.745Z,-3
2022-12-09T03:20:02.909Z,-3.2
2022-12-09T03:40:03.732Z,-3.3
2022-12-09T04:00:03.190Z,-3.3
2022-12-09T04:20:03.136Z,-3.3
2022-12-09T04:40:02.511Z,-3.3
2022-12-09T05:00:03.114Z,-3.1
2022-12-09T05:20:02.706Z,-3.2
2022-12-09T05:40:03.048Z,-3.1
2022-12-09T06:00:03.784Z,-3.1
2022-12-09T06:20:02.480Z,-3.1
2022-12-09T06:40:02.639Z,-2.9
2022-12-09T07:00:02.766Z,-2.9
2022-12-09T07:20:06.880Z,-3
2022-12-09T07:40:03.232Z,-2.8
2022-12-09T08:00:03.483Z,-2.8
2022-12-09T08:20:03.027Z,-2.9
2022-12-09T08:40:02.275Z,-2.8
2022-12-09T09:00:02.176Z,-2.5
2022-12-09T09:20:03.139Z,-2.3
2022-12-09T09:40:02.654Z,-2.2
2022-12-09T10:00:08.663Z,-2.2
2022-12-09T10:20:02.976Z,-2.1
2022-12-09T10:40:02.433Z,-2.3
2022-12-09T11:00:02.980Z,-2.2
2022-12-09T11:20:02.856Z,-2.4
2022-12-09T11:40:03.035Z,-2
2022-12-09T12:00:03.021Z,-2
2022-12-09T12:20:03.148Z,-2.1
2022-12-09T12:40:03.115Z,-2.1
2022-12-09T13:00:02.853Z,-2
2022-12-09T13:20:02.485Z,-2.1
2022-12-09T13:40:02.982Z,-2.3
2022-12-09T14:00:02.684Z,-2.5
2022-12-09T14:20:02.560Z,-2.5
2022-12-09T14:40:02.971Z,-2.5
2022-12-09T15:00:02.817Z,-2.8
2022-12-09T15:20:02.634Z,-2.9
2022-12-09T15:40:03.177Z,-2.9
2022-12-09T16:00:03.029Z,-2.9
2022-12-09T16:20:02.838Z,-2.9
2022-12-09T16:40:02.460Z,-3.2
2022-12-09T17:00:03.128Z,-3.2
2022-12-09T17:20:03.028Z,-3.3
2022-12-09T17:40:03.851Z,-3.2
2022-12-09T18:00:02.669Z,-3.3
2022-12-09T18:20:02.642Z,-3.3
2022-12-09T18:40:03.132Z,-3.4
2022-12-09T19:00:03.361Z,-3.5
2022-12-09T19:20:03.234Z,-3.4
2022-12-09T19:40:02.748Z,-3.3
2022-12-09T20:00:03.685Z,-3.1
2022-12-09T20:20:02.744Z,-3.2
2022-12-09T20:40:02.389Z,-3.2
2022-12-09T21:00:03.064Z,-2.9
2022-12-09T21:20:02.890Z,-3
2022-12-09T21:40:02.337Z,-3
2022-12-09T22:00:03.268Z,-3
2022-12-09T22:20:33.638Z,-2.8
2022-12-09T22:40:03.154Z,-2.8
2022-12-09T23:00:02.827Z,-3
2022-12-09T23:20:02.676Z,-2.8
2022-12-09T23:40:03.044Z,-3
